Time;durP1;ratioP1;P1;durP2;ratioP2;P2;SDS_P1;SDS_P2;PMS_P1;PMS_P2;Temp;Humidity;BMP_temperature;BMP_pressure;BME280_temperature;BME280_humidity;BME280_pressure;Samples;Min_cycle;Max_cycle;Signal;HPM_P1;HPM_P2
2021/08/25 00:02:04;;;;;;;0.10;0.10;;;16.00;99.90;;;;;;5073274;28;20172;-72
2021/08/25 00:04:30;;;;;;;0.10;0.10;;;16.00;99.90;;;;;;5091250;28;20251;-73
2021/08/25 00:06:55;;;;;;;0.10;0.10;;;15.90;99.90;;;;;;5073170;28;20198;-72
2021/08/25 00:09:21;;;;;;;0.20;0.20;;;15.90;99.90;;;;;;5073076;28;20172;-71
2021/08/25 00:11:47;;;;;;;0.40;0.40;;;15.80;99.90;;;;;;5091318;28;20171;-72
2021/08/25 00:14:13;;;;;;;0.50;0.50;;;15.80;99.90;;;;;;5091064;28;20219;-71
2021/08/25 00:16:40;;;;;;;0.20;0.20;;;15.70;99.90;;;;;;5090938;28;20262;-72
2021/08/25 00:19:06;;;;;;;0.43;0.43;;;15.70;99.90;;;;;;5090218;28;20179;-71
2021/08/25 00:21:32;;;;;;;0.20;0.20;;;15.60;99.90;;;;;;5091020;28;20536;-72
2021/08/25 00:23:58;;;;;;;0.50;0.35;;;15.40;99.90;;;;;;5072785;28;20207;-72
2021/08/25 00:26:24;;;;;;;0.30;0.30;;;15.30;99.90;;;;;;5090904;28;20366;-71
2021/08/25 00:28:50;;;;;;;0.40;0.40;;;15.20;99.90;;;;;;5072756;28;20172;-71
2021/08/25 00:31:16;;;;;;;0.22;0.22;;;14.90;99.90;;;;;;5090703;28;20180;-72
2021/08/25 00:33:42;;;;;;;0.10;0.10;;;15.00;99.90;;;;;;5072479;28;20192;-71
2021/08/25 00:36:08;;;;;;;0.20;0.20;;;15.10;99.90;;;;;;5090688;28;20175;-72
2021/08/25 00:38:34;;;;;;;0.68;0.68;;;15.10;99.90;;;;;;5072302;28;20199;-71
2021/08/25 00:41:00;;;;;;;0.40;0.40;;;15.10;99.90;;;;;;5072464;28;20179;-71
2021/08/25 00:43:26;;;;;;;0.20;0.20;;;14.80;99.90;;;;;;5090598;28;20192;-72
2021/08/25 00:45:52;;;;;;;0.25;0.25;;;14.50;99.90;;;;;;5090462;28;20183;-72
2021/08/25 00:48:18;;;;;;;0.60;0.60;;;14.40;99.90;;;;;;5090626;28;20180;-72
2021/08/25 00:50:51;;;;;;;0.38;0.38;;;14.20;99.90;;;;;;5097495;28;20230;-72
2021/08/25 00:53:22;;;;;;;0.20;0.20;;;14.10;99.90;;;;;;5110800;28;20186;-72
2021/08/25 00:55:49;;;;;;;0.50;0.50;;;13.90;99.90;;;;;;5110603;28;20175;-73
2021/08/25 00:58:16;;;;;;;0.20;0.20;;;14.10;99.90;;;;;;5110637;28;20199;-72
2021/08/25 01:00:51;;;;;;;0.10;0.10;;;14.40;99.90;;;;;;5110426;28;20647;-73
2021/08/25 01:03:27;;;;;;;0.10;0.10;;;14.70;99.90;;;;;;5110469;28;20187;-73
2021/08/25 01:05:55;;;;;;;1.38;0.82;;;14.80;99.90;;;;;;5110481;28;20182;-72
2021/08/25 01:08:21;;;;;;;0.52;0.52;;;14.50;99.90;;;;;;5092208;28;20364;-72
2021/08/25 01:10:47;;;;;;;0.20;0.20;;;14.60;99.90;;;;;;5110492;28;20155;-73
2021/08/25 01:13:14;;;;;;;0.10;0.10;;;14.50;99.90;;;;;;5110275;28;20191;-73
2021/08/25 01:15:42;;;;;;;0.40;0.40;;;14.50;99.90;;;;;;5110287;28;20164;-73
2021/08/25 01:18:14;;;;;;;5.47;1.25;;;14.70;99.90;;;;;;5091880;28;20210;-73
2021/08/25 01:20:43;;;;;;;0.70;0.70;;;14.90;99.90;;;;;;5091923;28;20227;-73
2021/08/25 01:23:14;;;;;;;0.20;0.20;;;14.90;99.90;;;;;;5110035;28;20193;-73
2021/08/25 01:25:41;;;;;;;0.65;0.63;;;14.90;99.90;;;;;;5091808;28;20167;-73
2021/08/25 01:28:09;;;;;;;0.43;0.30;;;14.90;99.90;;;;;;5110206;28;20189;-73
2021/08/25 01:30:40;;;;;;;0.32;0.32;;;14.70;99.90;;;;;;5091430;28;20584;-73
2021/08/25 01:33:06;;;;;;;0.45;0.45;;;14.50;99.90;;;;;;5109872;28;20191;-74
2021/08/25 01:35:40;;;;;;;0.80;0.43;;;14.50;99.90;;;;;;5091858;28;20191;-73
2021/08/25 01:38:08;;;;;;;0.10;0.10;;;14.40;99.90;;;;;;5110091;28;20187;-73
2021/08/25 01:40:36;;;;;;;0.10;0.10;;;14.10;99.90;;;;;;5110125;28;20156;-73
2021/08/25 01:43:07;;;;;;;2.03;1.55;;;13.90;99.90;;;;;;5109811;28;20187;-73
2021/08/25 01:45:33;;;;;;;0.10;0.10;;;13.70;99.90;;;;;;5091588;28;20167;-73
2021/08/25 01:47:59;;;;;;;0.30;0.30;;;13.90;99.90;;;;;;5109801;28;20186;-73
2021/08/25 01:50:25;;;;;;;0.20;0.20;;;14.20;99.90;;;;;;5086724;28;20216;-73
2021/08/25 01:52:51;;;;;;;0.20;0.20;;;14.40;99.90;;;;;;5071439;28;20636;-73
2021/08/25 01:55:18;;;;;;;0.17;0.17;;;14.30;99.90;;;;;;5089152;28;20633;-73
2021/08/25 01:57:44;;;;;;;0.30;0.28;;;14.50;99.90;;;;;;5089324;28;20247;-73
2021/08/25 02:00:10;;;;;;;0.52;0.52;;;14.50;99.90;;;;;;5089253;28;20182;-73
2021/08/25 02:02:36;;;;;;;0.63;0.63;;;14.40;99.90;;;;;;5071164;28;20222;-73
2021/08/25 02:05:04;;;;;;;0.25;0.25;;;14.20;99.90;;;;;;5089249;28;20216;-72
2021/08/25 02:07:30;;;;;;;0.57;0.57;;;14.40;99.90;;;;;;5089234;28;20171;-72
2021/08/25 02:09:56;;;;;;;0.20;0.20;;;14.50;99.90;;;;;;5089006;28;20176;-72
2021/08/25 02:12:22;;;;;;;0.30;0.30;;;14.60;99.90;;;;;;5089008;28;20175;-73
2021/08/25 02:14:48;;;;;;;0.22;0.22;;;14.70;99.90;;;;;;5089043;28;20159;-71
2021/08/25 02:17:13;;;;;;;0.20;0.20;;;14.60;99.90;;;;;;5070813;28;20231;-73
2021/08/25 02:19:39;;;;;;;0.20;0.20;;;14.70;99.90;;;;;;5088968;28;20224;-71
2021/08/25 02:22:05;;;;;;;0.47;0.47;;;14.60;99.90;;;;;;5070834;28;20191;-73
2021/08/25 02:24:31;;;;;;;0.52;0.50;;;14.60;99.90;;;;;;5070939;28;20172;-73
2021/08/25 02:26:57;;;;;;;2.20;1.20;;;14.60;99.90;;;;;;5088986;28;20667;-73
2021/08/25 02:29:24;;;;;;;0.10;0.10;;;14.50;99.90;;;;;;5088932;28;20191;-71
2021/08/25 02:31:50;;;;;;;0.10;0.10;;;14.60;99.90;;;;;;5088775;28;20160;-75
2021/08/25 02:34:15;;;;;;;0.55;0.55;;;14.50;99.90;;;;;;5070641;28;20206;-73
2021/08/25 02:36:41;;;;;;;0.10;0.10;;;14.40;99.90;;;;;;5088786;28;20247;-73
2021/08/25 02:39:08;;;;;;;0.50;0.50;;;14.50;99.90;;;;;;5088837;28;20163;-73
2021/08/25 02:41:34;;;;;;;0.20;0.20;;;14.50;99.90;;;;;;5088827;28;20156;-71
2021/08/25 02:44:00;;;;;;;0.85;0.77;;;14.50;99.90;;;;;;5070149;28;20187;-73
2021/08/25 02:46:26;;;;;;;0.52;0.52;;;14.40;99.90;;;;;;5088413;28;20156;-74
2021/08/25 02:48:52;;;;;;;0.10;0.10;;;13.80;99.90;;;;;;5070242;28;20191;-72
2021/08/25 02:51:18;;;;;;;1.15;1.05;;;13.90;99.90;;;;;;5081788;28;20694;-72
2021/08/25 02:53:44;;;;;;;0.35;0.35;;;14.00;99.90;;;;;;5108615;28;20183;-74
2021/08/25 02:56:11;;;;;;;0.10;0.10;;;14.00;99.90;;;;;;5108755;28;20186;-75
2021/08/25 02:58:36;;;;;;;0.85;0.75;;;14.10;99.90;;;;;;5108392;28;20211;-74
2021/08/25 03:01:02;;;;;;;1.00;1.00;;;14.20;99.90;;;;;;5090362;28;20176;-72
2021/08/25 03:03:28;;;;;;;0.10;0.10;;;14.20;99.90;;;;;;5108407;28;20206;-71
2021/08/25 03:05:54;;;;;;;0.10;0.10;;;13.90;99.90;;;;;;5108462;28;20709;-72
2021/08/25 03:08:20;;;;;;;0.25;0.25;;;13.60;99.90;;;;;;5090515;28;20206;-72
2021/08/25 03:10:46;;;;;;;0.40;0.40;;;13.70;99.90;;;;;;5108251;28;20160;-72
2021/08/25 03:13:12;;;;;;;0.73;0.70;;;13.80;99.90;;;;;;5108313;28;20191;-72
2021/08/25 03:15:38;;;;;;;0.30;0.30;;;13.90;99.90;;;;;;5090027;28;20663;-72
2021/08/25 03:18:05;;;;;;;0.40;0.40;;;13.60;99.90;;;;;;5108499;28;20608;-72
2021/08/25 03:20:32;;;;;;;0.28;0.28;;;13.30;99.90;;;;;;5108342;28;20151;-73
2021/08/25 03:22:57;;;;;;;0.30;0.30;;;13.10;99.90;;;;;;5108166;28;20183;-74
2021/08/25 03:25:23;;;;;;;0.20;0.20;;;13.20;99.90;;;;;;5090190;28;20213;-73
2021/08/25 03:27:49;;;;;;;0.10;0.10;;;13.20;99.90;;;;;;5090032;28;20171;-74
2021/08/25 03:30:15;;;;;;;0.10;0.10;;;13.00;99.90;;;;;;5089889;28;20267;-73
2021/08/25 03:32:41;;;;;;;2.75;0.80;;;13.10;99.90;;;;;;5108367;28;20251;-72
2021/08/25 03:35:08;;;;;;;0.20;0.20;;;12.70;99.90;;;;;;5108037;28;20163;-73
2021/08/25 03:37:34;;;;;;;0.95;0.95;;;12.80;99.90;;;;;;5107950;28;20217;-74
2021/08/25 03:40:00;;;;;;;0.30;0.30;;;12.70;99.90;;;;;;5108000;28;20198;-72
2021/08/25 03:42:26;;;;;;;0.40;0.40;;;12.60;99.90;;;;;;5108147;28;20179;-73
2021/08/25 03:44:52;;;;;;;1.00;1.00;;;12.80;99.90;;;;;;5108183;28;20163;-73
2021/08/25 03:47:17;;;;;;;0.40;0.40;;;12.80;99.90;;;;;;5089511;28;20176;-72
2021/08/25 03:49:44;;;;;;;0.30;0.30;;;12.90;99.90;;;;;;5089685;28;20259;-73
2021/08/25 03:52:10;;;;;;;0.10;0.10;;;13.20;99.90;;;;;;5107714;28;20211;-73
2021/08/25 03:54:35;;;;;;;0.30;0.30;;;13.10;99.90;;;;;;5090808;28;20239;-73
2021/08/25 03:57:01;;;;;;;0.55;0.55;;;13.10;99.90;;;;;;5111737;28;20191;-73
2021/08/25 03:59:27;;;;;;;0.73;0.73;;;13.20;99.90;;;;;;5111537;28;20183;-74
2021/08/25 04:01:53;;;;;;;16.55;1.35;;;12.80;99.90;;;;;;5111725;28;20168;-74
2021/08/25 04:04:19;;;;;;;0.25;0.25;;;12.50;99.90;;;;;;5111567;28;20223;-74
2021/08/25 04:06:45;;;;;;;0.13;0.13;;;12.50;99.90;;;;;;5111702;28;20164;-73
2021/08/25 04:09:11;;;;;;;2.28;0.77;;;12.30;99.90;;;;;;5111376;28;20163;-74
2021/08/25 04:11:37;;;;;;;0.10;0.10;;;12.30;99.90;;;;;;5111647;28;20159;-73
2021/08/25 04:14:04;;;;;;;0.40;0.40;;;12.20;99.90;;;;;;5111310;28;20626;-73
2021/08/25 04:16:30;;;;;;;0.00;0.00;;;12.20;99.90;;;;;;5093148;28;20183;-73
2021/08/25 04:18:56;;;;;;;1.20;0.52;;;12.10;99.90;;;;;;5111424;28;20635;-73
2021/08/25 04:21:24;;;;;;;0.17;0.17;;;12.00;99.90;;;;;;5111013;28;20198;-72
2021/08/25 04:23:50;;;;;;;1.10;1.10;;;12.20;99.90;;;;;;5111363;28;20183;-73
2021/08/25 04:26:16;;;;;;;3.42;0.68;;;12.60;99.90;;;;;;5092723;28;20170;-73
2021/08/25 04:28:42;;;;;;;0.20;0.20;;;13.10;99.90;;;;;;5110959;28;20170;-73
2021/08/25 04:31:11;;;;;;;0.17;0.17;;;13.40;99.90;;;;;;5092848;28;20199;-73
2021/08/25 04:33:37;;;;;;;0.90;0.90;;;13.50;99.90;;;;;;5111094;28;20163;-72
2021/08/25 04:36:04;;;;;;;0.85;0.85;;;13.20;99.90;;;;;;5111034;28;20191;-72
2021/08/25 04:38:30;;;;;;;0.55;0.55;;;13.00;99.90;;;;;;5110683;28;20199;-73
2021/08/25 04:40:58;;;;;;;1.23;1.23;;;13.20;99.90;;;;;;5110941;28;20182;-73
2021/08/25 04:43:28;;;;;;;1.63;0.57;;;13.60;99.90;;;;;;5110587;28;20235;-73
2021/08/25 04:45:55;;;;;;;0.65;0.65;;;13.70;99.90;;;;;;5110958;28;20152;-73
2021/08/25 04:48:21;;;;;;;0.35;0.35;;;13.90;99.90;;;;;;5092445;28;20171;-75
2021/08/25 04:50:47;;;;;;;0.45;0.32;;;14.00;99.90;;;;;;5102606;28;20219;-74
2021/08/25 04:53:14;;;;;;;0.20;0.20;;;14.30;99.90;;;;;;5090482;28;20251;-74
2021/08/25 04:55:40;;;;;;;0.10;0.10;;;14.20;99.90;;;;;;5071854;28;20176;-74
2021/08/25 04:58:07;;;;;;;1.38;1.25;;;14.40;99.90;;;;;;5072102;28;20249;-73
2021/08/25 05:00:34;;;;;;;0.40;0.40;;;14.90;99.90;;;;;;5090196;28;20192;-74
2021/08/25 05:03:00;;;;;;;1.05;1.05;;;15.40;99.90;;;;;;5090202;28;20163;-74
2021/08/25 05:05:25;;;;;;;3.22;0.55;;;15.50;99.90;;;;;;5089945;28;20152;-74
2021/08/25 05:07:51;;;;;;;0.95;0.88;;;16.10;99.90;;;;;;5090047;28;20171;-74
2021/08/25 05:10:18;;;;;;;1.02;0.93;;;16.60;99.90;;;;;;5071864;28;20207;-76
2021/08/25 05:12:45;;;;;;;1.15;1.05;;;16.90;99.90;;;;;;5071855;28;20168;-73
2021/08/25 05:15:11;;;;;;;0.20;0.20;;;17.10;99.90;;;;;;5089734;28;20164;-74
2021/08/25 05:17:38;;;;;;;5.38;0.73;;;17.10;99.90;;;;;;5089861;28;20194;-73
2021/08/25 05:20:06;;;;;;;0.52;0.52;;;16.70;99.90;;;;;;5071513;28;20249;-74
2021/08/25 05:22:33;;;;;;;0.73;0.73;;;16.80;99.90;;;;;;5089785;28;20172;-73
2021/08/25 05:24:59;;;;;;;0.20;0.20;;;16.70;99.90;;;;;;5071417;28;20171;-74
2021/08/25 05:27:25;;;;;;;0.68;0.60;;;16.90;99.90;;;;;;5089695;28;20172;-74
2021/08/25 05:29:51;;;;;;;0.65;0.45;;;17.50;99.90;;;;;;5071408;28;20195;-75
2021/08/25 05:32:17;;;;;;;0.20;0.20;;;17.30;99.90;;;;;;5089341;28;20247;-75
2021/08/25 05:34:43;;;;;;;0.47;0.47;;;17.60;99.90;;;;;;5089546;28;20187;-74
2021/08/25 05:37:10;;;;;;;0.28;0.28;;;17.90;99.90;;;;;;5071172;28;20203;-74
2021/08/25 05:39:35;;;;;;;0.55;0.43;;;18.20;99.90;;;;;;5071574;28;20188;-74
2021/08/25 05:42:02;;;;;;;0.22;0.22;;;18.00;99.90;;;;;;5071336;28;20178;-74
2021/08/25 05:44:27;;;;;;;0.20;0.20;;;18.20;99.90;;;;;;5089464;28;20152;-74
2021/08/25 05:46:53;;;;;;;0.90;0.90;;;18.20;99.90;;;;;;5071113;28;20239;-73
2021/08/25 05:49:19;;;;;;;0.63;0.63;;;18.50;99.90;;;;;;5071259;28;20176;-75
2021/08/25 05:51:45;;;;;;;0.32;0.32;;;18.30;99.90;;;;;;5104392;28;20314;-73
2021/08/25 05:54:13;;;;;;;0.57;0.52;;;18.40;99.90;;;;;;5109579;28;20174;-74
2021/08/25 05:56:40;;;;;;;0.85;0.73;;;19.10;99.90;;;;;;5109038;28;20181;-74
2021/08/25 05:59:06;;;;;;;2.75;1.10;;;18.80;99.90;;;;;;5109560;28;20186;-73
2021/08/25 06:01:32;;;;;;;0.63;0.63;;;19.30;99.90;;;;;;5090777;28;20170;-74
2021/08/25 06:03:58;;;;;;;2.00;0.63;;;19.30;99.90;;;;;;5109515;28;20155;-75
2021/08/25 06:06:36;;;;;;;3.35;0.98;;;18.90;99.90;;;;;;5108979;28;20165;-74
2021/08/25 06:09:06;;;;;;;0.30;0.30;;;19.10;99.90;;;;;;5109210;28;20151;-73
2021/08/25 06:11:36;;;;;;;0.30;0.30;;;19.00;99.90;;;;;;5090731;28;20245;-74
2021/08/25 06:14:03;;;;;;;5.60;1.20;;;18.80;99.90;;;;;;5108897;28;20151;-73
2021/08/25 06:16:29;;;;;;;0.20;0.20;;;18.90;99.90;;;;;;5108794;28;20151;-74
2021/08/25 06:18:55;;;;;;;0.45;0.32;;;18.70;99.90;;;;;;5108505;28;20205;-74
2021/08/25 06:21:21;;;;;;;0.30;0.30;;;19.20;99.90;;;;;;5108857;28;20245;-73
2021/08/25 06:23:47;;;;;;;0.20;0.20;;;19.30;99.90;;;;;;5108919;28;20182;-74
2021/08/25 06:26:15;;;;;;;0.30;0.30;;;20.10;99.90;;;;;;5108946;28;20155;-74
2021/08/25 06:28:41;;;;;;;0.75;0.45;;;19.20;99.90;;;;;;5090547;28;20171;-74
2021/08/25 06:31:08;;;;;;;0.98;0.98;;;19.50;99.90;;;;;;5090563;28;20194;-73
2021/08/25 06:33:34;;;;;;;0.50;0.50;;;19.60;99.90;;;;;;5107607;28;20183;-75
2021/08/25 06:36:00;;;;;;;1.40;1.40;;;19.50;99.90;;;;;;5108481;28;20197;-74
2021/08/25 06:38:26;;;;;;;1.08;0.98;;;19.10;99.90;;;;;;5090506;28;20209;-74
2021/08/25 06:40:52;;;;;;;0.57;0.57;;;19.50;99.90;;;;;;5090252;28;20214;-78
2021/08/25 06:43:18;;;;;;;0.47;0.47;;;20.00;99.90;;;;;;5090415;28;20194;-74
2021/08/25 06:45:44;;;;;;;3.63;0.63;;;19.90;99.90;;;;;;5108914;28;20274;-74
2021/08/25 06:48:10;;;;;;;0.20;0.20;;;20.30;99.90;;;;;;5108333;28;20155;-74
2021/08/25 06:50:35;;;;;;;0.52;0.52;;;19.80;99.90;;;;;;5108504;28;20270;-74
2021/08/25 06:53:01;;;;;;;1.10;0.73;;;19.20;99.90;;;;;;5108489;28;20188;-74
2021/08/25 06:55:27;;;;;;;1.13;0.80;;;19.50;99.90;;;;;;5108469;28;20235;-74
2021/08/25 06:57:53;;;;;;;0.20;0.20;;;20.10;99.90;;;;;;5090333;28;20295;-74
2021/08/25 07:00:19;;;;;;;1.08;0.98;;;20.10;99.90;;;;;;5108485;28;20181;-74
2021/08/25 07:02:45;;;;;;;3.30;0.73;;;19.50;99.90;;;;;;5108731;28;20161;-75
2021/08/25 07:05:11;;;;;;;0.38;0.38;;;19.90;99.90;;;;;;5090276;28;20348;-75
2021/08/25 07:07:37;;;;;;;0.88;0.88;;;20.00;99.90;;;;;;5090233;28;20289;-76
2021/08/25 07:10:05;;;;;;;1.95;0.63;;;18.70;99.90;;;;;;5108370;28;20160;-75
2021/08/25 07:12:31;;;;;;;1.10;0.88;;;18.20;99.90;;;;;;5108503;28;20156;-76
2021/08/25 07:14:56;;;;;;;1.17;0.95;;;19.00;99.90;;;;;;5108047;28;20180;-76
2021/08/25 07:17:23;;;;;;;0.13;0.13;;;20.20;99.90;;;;;;5090093;28;20270;-73
2021/08/25 07:19:49;;;;;;;1.20;1.10;;;19.60;99.90;;;;;;5108486;28;20155;-75
2021/08/25 07:22:15;;;;;;;0.50;0.50;;;20.10;99.90;;;;;;5108458;28;20632;-73
2021/08/25 07:24:41;;;;;;;0.63;0.63;;;19.80;99.90;;;;;;5090077;28;20166;-74
2021/08/25 07:27:06;;;;;;;0.50;0.43;;;19.90;99.90;;;;;;5089684;28;20240;-74
2021/08/25 07:29:32;;;;;;;0.68;0.68;;;19.60;99.90;;;;;;5110923;28;20163;-74
2021/08/25 07:32:02;;;;;;;0.15;0.15;;;19.00;99.90;;;;;;5093830;28;20238;-75
2021/08/25 07:34:28;;;;;;;0.20;0.20;;;19.20;99.90;;;;;;5112352;28;20205;-75
2021/08/25 07:36:55;;;;;;;0.22;0.22;;;18.90;99.90;;;;;;5093813;28;20206;-75
2021/08/25 07:39:21;;;;;;;0.55;0.50;;;19.40;99.90;;;;;;5093804;28;20163;-74
2021/08/25 07:41:47;;;;;;;0.30;0.30;;;19.10;99.90;;;;;;5112209;28;20154;-74
2021/08/25 07:44:14;;;;;;;0.50;0.40;;;19.90;99.90;;;;;;5093613;28;20595;-74
2021/08/25 07:46:40;;;;;;;0.85;0.85;;;20.00;99.90;;;;;;5112110;28;20293;-75
2021/08/25 07:49:06;;;;;;;0.25;0.25;;;19.70;99.90;;;;;;5111845;28;20214;-74
2021/08/25 07:51:34;;;;;;;2.53;1.17;;;19.80;99.90;;;;;;5111668;28;20244;-75
2021/08/25 07:54:02;;;;;;;0.28;0.28;;;19.60;99.90;;;;;;5111945;28;20177;-74
2021/08/25 07:56:28;;;;;;;1.52;0.52;;;19.60;99.90;;;;;;5093501;28;20212;-74
2021/08/25 07:58:55;;;;;;;0.88;0.88;;;19.50;99.90;;;;;;5093349;28;20190;-74
2021/08/25 08:01:23;;;;;;;0.75;0.75;;;20.70;99.90;;;;;;5111785;28;20200;-75
2021/08/25 08:03:49;;;;;;;0.17;0.17;;;20.10;99.90;;;;;;5093327;28;20174;-74
2021/08/25 08:06:21;;;;;;;0.15;0.15;;;20.50;99.90;;;;;;5111544;28;20564;-74
2021/08/25 08:08:47;;;;;;;0.00;0.00;;;19.60;99.90;;;;;;5093320;28;20178;-74
2021/08/25 08:11:14;;;;;;;0.35;0.30;;;19.80;99.90;;;;;;5092973;28;20176;-74
2021/08/25 08:13:40;;;;;;;1.45;0.43;;;20.20;99.90;;;;;;5111699;28;20159;-75
2021/08/25 08:16:07;;;;;;;0.10;0.10;;;20.90;99.90;;;;;;5093027;28;20190;-74
2021/08/25 08:18:40;;;;;;;1.95;1.00;;;21.30;99.90;;;;;;5093009;28;20720;-74
2021/08/25 08:21:06;;;;;;;0.68;0.68;;;20.30;99.90;;;;;;5093072;28;20186;-74
2021/08/25 08:23:32;;;;;;;2.55;0.45;;;20.00;99.90;;;;;;5092717;28;20173;-75
2021/08/25 08:25:59;;;;;;;0.60;0.60;;;19.60;99.90;;;;;;5092944;28;20199;-74
2021/08/25 08:28:25;;;;;;;0.15;0.15;;;19.90;99.90;;;;;;5111249;28;20165;-75
2021/08/25 08:30:52;;;;;;;0.32;0.32;;;20.50;99.90;;;;;;5092920;28;20177;-74
2021/08/25 08:33:18;;;;;;;0.35;0.30;;;20.20;99.90;;;;;;5110910;28;20151;-74
2021/08/25 08:35:44;;;;;;;0.15;0.15;;;20.30;99.90;;;;;;5092726;28;20198;-74
2021/08/25 08:38:10;;;;;;;0.60;0.60;;;20.80;99.90;;;;;;5110727;28;20591;-74
2021/08/25 08:40:36;;;;;;;0.13;0.13;;;19.50;99.90;;;;;;5091766;28;20182;-74
2021/08/25 08:43:10;;;;;;;0.30;0.30;;;19.70;99.90;;;;;;5111229;28;20174;-74
2021/08/25 08:45:41;;;;;;;0.63;0.63;;;20.30;99.90;;;;;;5092454;28;20166;-74
2021/08/25 08:48:09;;;;;;;1.38;1.13;;;20.00;99.90;;;;;;5110856;28;20178;-74
2021/08/25 08:50:37;;;;;;;0.50;0.50;;;19.90;99.90;;;;;;5110428;28;20221;-74
2021/08/25 08:53:05;;;;;;;0.98;0.98;;;20.40;99.90;;;;;;5110649;28;20171;-74
2021/08/25 08:55:30;;;;;;;0.20;0.20;;;21.50;99.90;;;;;;5110614;28;20155;-74
2021/08/25 08:57:57;;;;;;;0.20;0.20;;;21.60;99.90;;;;;;5092016;28;20195;-74
2021/08/25 09:00:23;;;;;;;0.20;0.20;;;21.80;99.90;;;;;;5110709;28;20218;-74
2021/08/25 09:02:49;;;;;;;1.35;0.52;;;21.00;99.90;;;;;;5092082;28;20171;-73
2021/08/25 09:05:19;;;;;;;1.17;0.70;;;20.90;99.90;;;;;;5110599;28;20193;-74
2021/08/25 09:08:00;;;;;;;0.30;0.20;;;21.30;99.90;;;;;;5091814;28;20266;-74
2021/08/25 09:10:38;;;;;;;0.55;0.55;;;21.00;99.90;;;;;;5092051;28;20175;-74
2021/08/25 09:13:09;;;;;;;0.40;0.40;;;21.00;99.90;;;;;;5110121;28;20163;-74
2021/08/25 09:15:43;;;;;;;0.55;0.55;;;20.10;99.90;;;;;;5110269;28;20169;-74
2021/08/25 09:18:19;;;;;;;0.32;0.32;;;20.20;99.90;;;;;;5091974;28;20202;-75
2021/08/25 09:20:48;;;;;;;0.22;0.22;;;21.20;99.90;;;;;;5110033;28;20176;-74
2021/08/25 09:23:18;;;;;;;0.17;0.17;;;21.80;99.90;;;;;;5110271;28;20152;-74
2021/08/25 09:25:52;;;;;;;0.10;0.10;;;21.10;99.90;;;;;;5109585;28;20195;-75
2021/08/25 09:28:27;;;;;;;0.70;0.43;;;21.20;99.90;;;;;;5092157;28;20657;-74
2021/08/25 09:31:00;;;;;;;0.20;0.20;;;21.70;99.90;;;;;;5109860;28;20154;-74
2021/08/25 09:33:33;;;;;;;0.22;0.20;;;20.80;99.90;;;;;;5091674;28;20174;-74
2021/08/25 09:36:07;;;;;;;0.60;0.60;;;19.80;99.90;;;;;;5109826;28;20190;-73
2021/08/25 09:38:35;;;;;;;1.05;0.70;;;20.80;99.90;;;;;;5109624;28;20178;-74
2021/08/25 09:41:08;;;;;;;1.02;0.85;;;22.10;99.90;;;;;;5109680;28;20158;-74
2021/08/25 09:43:43;;;;;;;2.20;0.75;;;21.90;99.90;;;;;;5109355;28;20159;-74
2021/08/25 09:46:17;;;;;;;0.45;0.32;;;21.20;99.90;;;;;;5109676;28;20197;-73
2021/08/25 09:48:48;;;;;;;0.55;0.55;;;22.30;99.90;;;;;;5091177;28;20739;-74
2021/08/25 09:51:16;;;;;;;0.40;0.40;;;22.90;99.90;;;;;;5090741;28;20253;-74
2021/08/25 09:53:48;;;;;;;0.52;0.50;;;23.10;99.90;;;;;;5090473;28;20208;-74
2021/08/25 09:56:34;;;;;;;9.13;0.68;;;23.20;99.90;;;;;;5091066;28;20202;-74
2021/08/25 09:59:06;;;;;;;2.38;0.80;;;23.60;99.90;;;;;;5109248;28;20192;-74
2021/08/25 10:01:32;;;;;;;0.57;0.57;;;23.10;99.90;;;;;;5109323;28;20159;-74
2021/08/25 10:03:58;;;;;;;0.30;0.25;;;22.90;99.90;;;;;;5108750;28;20540;-75
2021/08/25 10:06:26;;;;;;;0.65;0.32;;;22.50;99.90;;;;;;5109261;28;20186;-74
2021/08/25 10:08:53;;;;;;;1.55;0.73;;;23.10;99.90;;;;;;5108960;28;20163;-75
2021/08/25 10:11:31;;;;;;;0.47;0.47;;;24.10;99.90;;;;;;5109250;28;20154;-75
2021/08/25 10:13:58;;;;;;;1.25;1.15;;;23.90;99.90;;;;;;5109065;28;20178;-75
2021/08/25 10:16:45;;;;;;;0.30;0.30;;;24.50;99.90;;;;;;5090488;28;20225;-75
2021/08/25 10:19:27;;;;;;;0.63;0.63;;;25.10;99.90;;;;;;5109013;28;20165;-74
2021/08/25 10:21:56;;;;;;;2.17;0.40;;;24.80;99.90;;;;;;5091573;28;20163;-75
2021/08/25 10:24:22;;;;;;;0.20;0.20;;;24.40;99.90;;;;;;5092367;28;20170;-73
2021/08/25 10:27:00;;;;;;;0.15;0.15;;;23.10;99.90;;;;;;5091884;28;20191;-74
2021/08/25 10:29:28;;;;;;;0.17;0.17;;;23.40;99.90;;;;;;5109709;28;20155;-74
2021/08/25 10:31:54;;;;;;;1.38;0.80;;;23.70;99.90;;;;;;5108667;28;20178;-74
2021/08/25 10:34:23;;;;;;;1.83;0.60;;;22.90;99.90;;;;;;5109014;28;20191;-74
2021/08/25 10:36:50;;;;;;;0.30;0.30;;;22.60;99.90;;;;;;5106980;28;20195;-74
2021/08/25 10:39:36;;;;;;;0.63;0.63;;;22.60;99.90;;;;;;5109255;28;20272;-74
2021/08/25 10:42:04;;;;;;;0.57;0.30;;;24.00;99.90;;;;;;5091005;28;20166;-74
2021/08/25 10:44:45;;;;;;;1.17;0.70;;;24.70;99.90;;;;;;5108542;28;20155;-74
2021/08/25 10:47:16;;;;;;;0.68;0.68;;;24.00;99.90;;;;;;5108671;28;20194;-74
2021/08/25 10:49:45;;;;;;;8.43;1.15;;;23.00;99.90;;;;;;5108730;28;20882;-73
2021/08/25 10:52:18;;;;;;;0.43;0.43;;;23.90;99.90;;;;;;5108189;28;20547;-73
2021/08/25 10:54:46;;;;;;;0.65;0.57;;;25.50;99.90;;;;;;5107997;28;20178;-73
2021/08/25 10:57:21;;;;;;;0.95;0.95;;;25.60;99.90;;;;;;5108197;28;20231;-74
2021/08/25 10:59:47;;;;;;;0.40;0.40;;;26.10;99.90;;;;;;5108725;28;20170;-73
2021/08/25 11:02:14;;;;;;;0.50;0.50;;;25.10;99.90;;;;;;5108548;28;20214;-73
2021/08/25 11:04:40;;;;;;;0.45;0.45;;;25.30;99.90;;;;;;5095635;28;20162;-74
2021/08/25 11:07:10;;;;;;;0.75;0.75;;;25.20;99.90;;;;;;5115093;28;20190;-73
2021/08/25 11:09:43;;;;;;;0.63;0.22;;;24.70;99.90;;;;;;5114971;28;20173;-74
2021/08/25 11:12:14;;;;;;;1.50;1.08;;;25.40;99.90;;;;;;5096928;28;20170;-74
2021/08/25 11:14:46;;;;;;;0.65;0.63;;;24.00;99.90;;;;;;5096712;28;20175;-74
2021/08/25 11:17:17;;;;;;;2.22;0.50;;;23.90;99.90;;;;;;5095555;28;20213;-73
2021/08/25 11:19:48;;;;;;;0.98;0.90;;;22.80;99.90;;;;;;5096593;28;20269;-73
2021/08/25 11:22:21;;;;;;;0.90;0.90;;;22.90;99.90;;;;;;5096443;28;20174;-74
2021/08/25 11:24:53;;;;;;;0.47;0.47;;;23.20;99.90;;;;;;5114929;28;20184;-74
2021/08/25 11:27:21;;;;;;;0.20;0.20;;;23.60;99.90;;;;;;5114373;28;20162;-74
2021/08/25 11:30:06;;;;;;;0.65;0.65;;;24.50;99.90;;;;;;5096537;28;20162;-74
2021/08/25 11:32:35;;;;;;;0.85;0.85;;;24.50;99.90;;;;;;5096597;28;20234;-74
2021/08/25 11:35:01;;;;;;;0.57;0.57;;;24.20;99.90;;;;;;5096263;28;20242;-74
2021/08/25 11:37:27;;;;;;;0.77;0.20;;;24.60;99.90;;;;;;5114256;28;20186;-74
2021/08/25 11:40:03;;;;;;;0.85;0.60;;;25.70;99.90;;;;;;5114898;28;20154;-74
2021/08/25 11:42:32;;;;;;;0.40;0.40;;;25.80;99.90;;;;;;5114748;28;20151;-74
2021/08/25 11:44:58;;;;;;;0.38;0.38;;;25.30;99.90;;;;;;5114603;28;20218;-74
2021/08/25 11:47:25;;;;;;;0.32;0.32;;;24.70;99.90;;;;;;5095796;28;20167;-74
2021/08/25 11:49:54;;;;;;;0.30;0.30;;;25.50;99.90;;;;;;5096575;28;20297;-74
2021/08/25 11:52:31;;;;;;;0.70;0.70;;;25.60;99.90;;;;;;5075494;28;20192;-73
2021/08/25 11:55:02;;;;;;;2.80;1.10;;;24.60;99.90;;;;;;5076346;28;20629;-73
2021/08/25 11:57:46;;;;;;;0.30;0.30;;;25.00;99.90;;;;;;5076165;28;20202;-73
2021/08/25 12:00:15;;;;;;;0.40;0.40;;;25.90;99.90;;;;;;5094293;28;20679;-74
2021/08/25 12:03:01;;;;;;;2.05;1.58;;;25.70;99.90;;;;;;5094202;28;20148;-74
2021/08/25 12:05:36;;;;;;;22.00;0.80;;;25.90;99.90;;;;;;5074662;28;20196;-74
2021/08/25 12:08:11;;;;;;;0.32;0.32;;;25.40;99.90;;;;;;5094272;28;20246;-73
2021/08/25 12:10:43;;;;;;;0.75;0.57;;;24.70;99.90;;;;;;5094401;28;20218;-74
2021/08/25 12:13:10;;;;;;;1.48;1.38;;;23.30;99.90;;;;;;5092405;28;20214;-75
2021/08/25 12:15:50;;;;;;;2.03;0.82;;;23.60;99.90;;;;;;5072682;28;20182;-74
2021/08/25 12:18:18;;;;;;;1.45;1.08;;;23.70;99.90;;;;;;5094808;28;20713;-74
2021/08/25 12:20:46;;;;;;;0.22;0.22;;;23.10;99.90;;;;;;5108975;28;20155;-74
2021/08/25 12:23:15;;;;;;;0.68;0.68;;;22.20;99.90;;;;;;5080515;28;20211;-74
2021/08/25 12:25:43;;;;;;;0.30;0.30;;;21.50;99.90;;;;;;5077365;28;20230;-75
2021/08/25 12:28:15;;;;;;;0.63;0.63;;;20.80;99.90;;;;;;5079060;28;20221;-74
2021/08/25 12:30:42;;;;;;;0.90;0.90;;;20.40;99.90;;;;;;5108939;28;20210;-75
2021/08/25 12:33:10;;;;;;;0.70;0.52;;;20.40;99.90;;;;;;5090168;28;20201;-75
2021/08/25 12:35:38;;;;;;;0.75;0.75;;;20.60;99.90;;;;;;5103921;28;20203;-75
2021/08/25 12:38:06;;;;;;;4.65;1.50;;;20.70;99.90;;;;;;5102121;28;20199;-74
2021/08/25 12:40:33;;;;;;;2.17;0.90;;;20.20;99.90;;;;;;5090823;28;20200;-75
2021/08/25 12:43:00;;;;;;;0.40;0.40;;;20.30;99.90;;;;;;5090384;28;20167;-74
2021/08/25 12:45:27;;;;;;;1.23;1.23;;;20.40;99.90;;;;;;5090476;28;20168;-74
2021/08/25 12:47:55;;;;;;;2.42;1.15;;;20.50;99.90;;;;;;5090325;28;20195;-74
2021/08/25 12:50:23;;;;;;;0.20;0.20;;;20.80;99.90;;;;;;5071118;28;20227;-75
2021/08/25 12:52:50;;;;;;;0.47;0.47;;;20.60;99.90;;;;;;5089346;28;20191;-75